createdAt,value
2023-04-11T00:08:45.896Z,8.50
2023-04-11T00:23:46.433Z,8.30
2023-04-11T00:38:46.582Z,7.30
2023-04-11T00:53:47.639Z,8.10
2023-04-11T01:08:48.227Z,7.70
2023-04-11T01:23:48.851Z,8.10
2023-04-11T01:38:49.488Z,8.10
2023-04-11T01:53:49.987Z,8.00
2023-04-11T02:08:49.804Z,8.60
2023-04-11T02:23:50.006Z,8.30
2023-04-11T02:38:50.524Z,8.00
2023-04-11T02:53:50.623Z,8.50
2023-04-11T03:08:51.228Z,7.40
2023-04-11T03:23:52.285Z,7.30
2023-04-11T03:38:52.443Z,7.70
2023-04-11T03:53:52.531Z,7.30
2023-04-11T04:08:53.106Z,6.70
2023-04-11T04:23:54.164Z,7.70
2023-04-11T04:38:55.724Z,11.50
2023-04-11T04:53:55.791Z,8.40
2023-04-11T05:08:56.534Z,9.50
2023-04-11T05:23:57.006Z,798.60
2023-04-11T05:38:56.806Z,660.50
2023-04-11T05:53:58.536Z,469.80
2023-04-11T06:09:00.159Z,180.90
2023-04-11T06:24:00.330Z,403.00
2023-04-11T06:39:00.465Z,581.00
2023-04-11T06:54:01.060Z,445.30
2023-04-11T07:09:01.721Z,173.70
2023-04-11T07:24:02.323Z,672.20
2023-04-11T07:39:02.876Z,170.50
2023-04-11T07:54:03.946Z,363.90
2023-04-11T08:09:05.200Z,505.60
2023-04-11T08:24:05.650Z,220.20
2023-04-11T08:39:06.106Z,291.20
2023-04-11T08:54:05.813Z,290.60
2023-04-11T09:09:06.395Z,45.70
2023-04-11T09:24:06.441Z,41.00
2023-04-11T09:39:07.510Z,9.70
2023-04-11T09:54:07.538Z,3.90
2023-04-11T10:09:07.485Z,7.80
2023-04-11T10:24:08.404Z,5.70
2023-04-11T10:39:08.307Z,4.30
2023-04-11T10:54:09.876Z,113.50
2023-04-11T11:09:09.772Z,23.40
2023-04-11T11:24:09.941Z,1.10
2023-04-11T11:39:10.532Z,51.40
2023-04-11T11:54:10.707Z,127.90
2023-04-11T12:09:11.496Z,126.20
2023-04-11T12:24:11.921Z,0.90
2023-04-11T12:39:12.256Z,0.90
2023-04-11T12:54:12.386Z,29.80
2023-04-11T13:09:12.508Z,35.40
2023-04-11T13:24:12.451Z,511.80
2023-04-11T13:39:12.592Z,92.30
2023-04-11T13:54:12.666Z,126.40
2023-04-11T14:09:13.188Z,131.50
2023-04-11T14:24:13.200Z,112.30
2023-04-11T14:39:12.897Z,119.30
2023-04-11T14:54:12.989Z,81.40
2023-04-11T15:09:13.605Z,111.00
2023-04-11T15:24:14.212Z,116.10
2023-04-11T15:39:14.821Z,135.90
2023-04-11T15:54:15.358Z,125.80
2023-04-11T16:09:14.968Z,300.50
2023-04-11T16:24:15.164Z,36.70
2023-04-11T16:39:15.818Z,59.20
2023-04-11T16:54:16.905Z,81.80
2023-04-11T17:09:17.565Z,52.90
2023-04-11T17:24:18.461Z,39.90
2023-04-11T17:39:19.017Z,33.20
2023-04-11T17:54:19.715Z,33.90
2023-04-11T18:09:20.303Z,27.30
2023-04-11T18:24:20.837Z,2.10
2023-04-11T18:39:21.439Z,4.70
2023-04-11T18:54:22.073Z,3.10
2023-04-11T19:09:23.290Z,2.20
2023-04-11T19:24:23.662Z,3.10
2023-04-11T19:39:23.741Z,9.00
2023-04-11T19:54:23.926Z,2.90
2023-04-11T20:09:24.136Z,4.30
2023-04-11T20:24:24.608Z,4.20
2023-04-11T20:39:25.954Z,4.70
2023-04-11T20:54:26.577Z,4.40
2023-04-11T21:09:26.802Z,3.70
2023-04-11T21:24:27.913Z,3.50
2023-04-11T21:39:28.984Z,5.90
2023-04-11T21:54:30.080Z,6.70
2023-04-11T22:09:29.752Z,4.10
2023-04-11T22:24:30.350Z,4.50
2023-04-11T22:39:31.465Z,3.70
2023-04-11T22:54:31.668Z,4.60
2023-04-11T23:09:32.227Z,3.50
2023-04-11T23:24:32.736Z,7.50
2023-04-11T23:39:32.518Z,4.20
2023-04-11T23:54:33.451Z,5.00
